Time;durP1;ratioP1;P1;durP2;ratioP2;P2;SDS_P1;SDS_P2;PMS_P1;PMS_P2;Temp;Humidity;BMP_temperature;BMP_pressure;BME280_temperature;BME280_humidity;BME280_pressure;Samples;Min_cycle;Max_cycle;Signal;HPM_P1;HPM_P2
2022/04/12 00:00:24;;;;;;;5.93;5.43;;;10.10;3.00;;;;;;2611150;54;20174;-72
2022/04/12 00:02:50;;;;;;;10.53;6.20;;;10.10;3.30;;;;;;2610076;54;20427;-72
2022/04/12 00:05:16;;;;;;;6.17;5.60;;;10.10;3.80;;;;;;2613916;54;21549;-72
2022/04/12 00:07:46;;;;;;;10.10;6.73;;;10.00;3.70;;;;;;2613008;54;20155;-72
2022/04/12 00:10:13;;;;;;;6.53;5.90;;;9.90;4.30;;;;;;2613682;46;20471;-72
2022/04/12 00:12:39;;;;;;;7.10;6.40;;;9.90;6.70;;;;;;2610174;31;20856;-72
2022/04/12 00:15:07;;;;;;;7.40;6.70;;;9.90;6.70;;;;;;2609559;54;21333;-72
2022/04/12 00:20:19;;;;;;;7.10;6.50;;;9.80;8.90;;;;;;2614689;54;20387;-72
2022/04/12 00:22:45;;;;;;;6.80;5.93;;;9.80;9.40;;;;;;2612376;54;20415;-71
2022/04/12 00:25:12;;;;;;;6.30;5.70;;;9.90;10.50;;;;;;2613130;54;20415;-71
2022/04/12 00:27:39;;;;;;;6.97;6.20;;;9.60;11.40;;;;;;2613849;39;22247;-72
2022/04/12 00:30:09;;;;;;;7.73;7.03;;;9.50;12.60;;;;;;2609302;54;20408;-72
2022/04/12 00:32:35;;;;;;;7.00;6.40;;;9.50;14.20;;;;;;2609014;54;20398;-72
2022/04/12 00:35:02;;;;;;;7.67;6.80;;;9.30;28.20;;;;;;2611261;54;20407;-72
2022/04/12 00:37:28;;;;;;;7.67;6.87;;;9.40;12.60;;;;;;2612855;54;20394;-73
2022/04/12 00:39:54;;;;;;;9.43;8.00;;;;;;;;;;2609849;47;20457;-73
2022/04/12 00:42:21;;;;;;;8.03;6.40;;;;;;;;;;2608897;54;20149;-73
2022/04/12 00:44:47;;;;;;;7.10;6.50;;;9.40;11.70;;;;;;2611853;47;20515;-73
2022/04/12 00:47:13;;;;;;;6.23;5.70;;;9.40;12.00;;;;;;2611990;39;20822;-73
2022/04/12 00:49:40;;;;;;;7.47;6.70;;;9.40;11.80;;;;;;2610305;54;20974;-72
2022/04/12 00:52:07;;;;;;;7.70;6.67;;;9.30;11.50;;;;;;2609565;54;20407;-73
2022/04/12 00:54:35;;;;;;;7.50;6.80;;;9.20;14.60;;;;;;2610562;54;20501;-74
2022/04/12 00:57:03;;;;;;;7.40;6.80;;;9.20;12.00;;;;;;2612070;39;21016;-72
2022/04/12 00:59:31;;;;;;;6.47;5.87;;;9.30;11.80;;;;;;2609383;54;20426;-72
2022/04/12 01:01:57;;;;;;;7.60;6.70;;;9.20;11.80;;;;;;2611425;54;20464;-72
2022/04/12 01:04:24;;;;;;;10.23;7.17;;;9.30;12.20;;;;;;2612900;54;20395;-72
2022/04/12 01:06:51;;;;;;;10.90;6.20;;;9.20;11.50;;;;;;2610886;54;20451;-73
2022/04/12 01:09:17;;;;;;;7.53;6.83;;;9.30;11.00;;;;;;2612003;39;20504;-73
2022/04/12 01:11:48;;;;;;;7.03;6.43;;;9.30;11.60;;;;;;2610243;39;20807;-73
2022/04/12 01:14:15;;;;;;;7.57;6.47;;;9.30;12.20;;;;;;2608780;54;20431;-73
2022/04/12 01:16:41;;;;;;;7.30;6.60;;;9.40;11.10;;;;;;2611689;54;20500;-73
2022/04/12 01:19:07;;;;;;;5.97;5.53;;;9.40;11.30;;;;;;2612412;47;20408;-72
2022/04/12 01:21:57;;;;;;;6.43;5.93;;;9.30;12.10;;;;;;2611939;54;20407;-72
2022/04/12 01:24:23;;;;;;;7.23;6.50;;;9.30;12.10;;;;;;2613762;54;20153;-72
2022/04/12 01:26:49;;;;;;;11.33;6.90;;;9.30;11.80;;;;;;2611740;54;21070;-72
2022/04/12 01:29:16;;;;;;;6.30;5.80;;;;;;;;;;2610529;47;20427;-73
2022/04/12 01:31:42;;;;;;;7.27;6.67;;;9.10;17.60;;;;;;2612445;54;20430;-72
2022/04/12 01:34:08;;;;;;;7.60;6.13;;;8.80;31.20;;;;;;2610874;54;20386;-72
2022/04/12 01:36:34;;;;;;;6.80;6.20;;;9.10;13.30;;;;;;2611293;54;20426;-72
2022/04/12 01:38:59;;;;;;;6.70;6.00;;;9.10;13.60;;;;;;2610473;54;20944;-73
2022/04/12 01:41:25;;;;;;;9.07;6.67;;;9.10;14.40;;;;;;2611320;54;20152;-71
2022/04/12 01:43:52;;;;;;;6.77;6.13;;;9.00;14.70;;;;;;2612213;54;20182;-72
2022/04/12 01:46:17;;;;;;;7.33;6.50;;;9.00;15.30;;;;;;2611155;54;20157;-74
2022/04/12 01:48:45;;;;;;;7.50;6.80;;;8.90;16.60;;;;;;2612694;54;20426;-73
2022/04/12 01:51:11;;;;;;;6.90;6.20;;;8.90;16.60;;;;;;2612751;54;20153;-72
2022/04/12 01:53:37;;;;;;;7.10;6.50;;;8.80;17.10;;;;;;2610254;39;20809;-73
2022/04/12 01:56:03;;;;;;;8.00;7.23;;;8.90;16.70;;;;;;2609259;54;20150;-73
2022/04/12 01:58:31;;;;;;;6.17;5.67;;;8.80;17.00;;;;;;2611025;54;20713;-73
2022/04/12 02:00:57;;;;;;;8.93;6.80;;;8.80;18.10;;;;;;2611333;47;20496;-72
2022/04/12 02:03:23;;;;;;;8.40;7.43;;;8.80;18.00;;;;;;2610808;54;20428;-73
2022/04/12 02:05:48;;;;;;;6.87;6.27;;;8.80;17.80;;;;;;2610710;54;20403;-73
2022/04/12 02:08:14;;;;;;;10.03;6.53;;;8.90;18.00;;;;;;2609986;54;20210;-73
2022/04/12 02:10:40;;;;;;;7.03;6.33;;;8.80;18.80;;;;;;2610194;54;20773;-72
2022/04/12 02:13:06;;;;;;;9.80;5.80;;;8.80;19.80;;;;;;2610093;47;20287;-72
2022/04/12 02:15:33;;;;;;;7.10;6.50;;;8.70;20.60;;;;;;2610588;54;20257;-73
2022/04/12 02:17:59;;;;;;;7.93;7.10;;;8.70;21.40;;;;;;2610701;46;20199;-73
2022/04/12 02:20:25;;;;;;;7.00;6.40;;;8.60;21.90;;;;;;2610181;54;20398;-73
2022/04/12 02:22:51;;;;;;;6.90;6.30;;;8.50;23.00;;;;;;2611360;54;20153;-73
2022/04/12 02:25:17;;;;;;;7.77;7.07;;;8.60;22.80;;;;;;2611545;39;20616;-73
2022/04/12 02:27:43;;;;;;;11.23;6.33;;;8.60;23.30;;;;;;2610060;54;20417;-73
2022/04/12 02:30:09;;;;;;;6.97;6.37;;;8.50;23.20;;;;;;2610027;54;20216;-73
2022/04/12 02:32:35;;;;;;;6.50;5.90;;;8.50;25.00;;;;;;2611181;54;20201;-73
2022/04/12 02:35:01;;;;;;;10.70;6.20;;;8.40;27.30;;;;;;2611455;54;20411;-71
2022/04/12 02:37:27;;;;;;;6.37;5.80;;;8.30;28.30;;;;;;2613488;54;20630;-72
2022/04/12 02:39:53;;;;;;;8.03;7.10;;;8.40;28.50;;;;;;2612533;54;20158;-72
2022/04/12 02:42:19;;;;;;;7.30;6.30;;;8.40;28.60;;;;;;2610521;47;20994;-71
2022/04/12 02:44:44;;;;;;;9.40;6.80;;;8.40;29.00;;;;;;2611085;54;20388;-71
2022/04/12 02:47:10;;;;;;;7.60;6.73;;;8.40;29.20;;;;;;2608243;54;20176;-71
2022/04/12 02:49:37;;;;;;;6.30;5.80;;;;;;;;;;2610180;54;20244;-71
2022/04/12 02:52:04;;;;;;;6.27;5.67;;;8.40;28.10;;;;;;2611988;54;20398;-72
2022/04/12 02:54:30;;;;;;;6.90;6.30;;;8.50;28.50;;;;;;2612427;54;20415;-72
2022/04/12 02:56:55;;;;;;;8.70;7.50;;;8.40;29.70;;;;;;2611874;54;20398;-72
2022/04/12 02:59:21;;;;;;;7.40;6.70;;;8.40;29.90;;;;;;2610167;54;20153;-72
2022/04/12 03:01:47;;;;;;;9.43;7.00;;;8.50;29.60;;;;;;2609806;39;20597;-73
2022/04/12 03:04:13;;;;;;;7.13;6.13;;;8.50;30.40;;;;;;2609288;54;20428;-73
2022/04/12 03:06:39;;;;;;;7.57;6.77;;;8.50;31.20;;;;;;2610416;54;20153;-73
2022/04/12 03:09:04;;;;;;;9.23;7.70;;;8.60;30.90;;;;;;2612219;54;20153;-73
2022/04/12 03:11:30;;;;;;;7.83;6.40;;;8.50;30.90;;;;;;2611634;47;20294;-73
2022/04/12 03:13:56;;;;;;;6.90;6.30;;;8.50;31.60;;;;;;2613514;54;20422;-73
2022/04/12 03:16:22;;;;;;;8.13;7.43;;;8.50;31.50;;;;;;2610166;54;20682;-72
2022/04/12 03:18:47;;;;;;;7.73;7.10;;;8.50;31.00;;;;;;2608878;39;20559;-73
2022/04/12 03:21:13;;;;;;;8.53;6.93;;;8.50;31.60;;;;;;2611640;54;20219;-72
2022/04/12 03:23:39;;;;;;;7.57;7.00;;;8.50;31.80;;;;;;2613147;54;20254;-73
2022/04/12 03:26:05;;;;;;;7.73;6.83;;;8.50;32.00;;;;;;2611676;54;20190;-72
2022/04/12 03:28:31;;;;;;;7.67;7.10;;;8.50;32.50;;;;;;2612540;39;20553;-72
2022/04/12 03:30:57;;;;;;;8.07;7.23;;;8.40;33.20;;;;;;2610968;54;20430;-72
2022/04/12 03:33:22;;;;;;;7.80;7.07;;;8.40;35.00;;;;;;2613470;54;20443;-73
2022/04/12 03:35:49;;;;;;;13.93;7.80;;;8.30;37.40;;;;;;2612705;54;20143;-73
2022/04/12 03:38:16;;;;;;;7.13;6.60;;;8.10;41.30;;;;;;2611463;54;20656;-72
2022/04/12 03:40:46;;;;;;;8.13;7.33;;;;;;;;;;2612725;47;20552;-74
2022/04/12 03:43:12;;;;;;;14.30;7.90;;;8.30;60.00;;;;;;2609506;47;20929;-73
2022/04/12 03:45:38;;;;;;;8.67;6.80;;;8.20;42.90;;;;;;2608419;47;21470;-73
2022/04/12 03:48:05;;;;;;;9.10;7.57;;;8.20;44.90;;;;;;2609638;54;20423;-73
2022/04/12 03:50:34;;;;;;;10.23;7.40;;;8.20;44.60;;;;;;2611857;49;20185;-73
2022/04/12 03:53:01;;;;;;;8.10;7.30;;;8.30;44.60;;;;;;2612872;54;20453;-73
2022/04/12 03:55:30;;;;;;;9.53;7.23;;;8.10;47.00;;;;;;2614475;54;20434;-73
2022/04/12 03:58:01;;;;;;;7.83;7.00;;;8.00;49.70;;;;;;2614693;46;20882;-73
2022/04/12 04:00:28;;;;;;;8.57;7.00;;;8.10;52.30;;;;;;2612889;46;20465;-72
2022/04/12 04:02:54;;;;;;;9.47;7.60;;;8.10;51.60;;;;;;2610612;54;20404;-72
2022/04/12 04:05:21;;;;;;;7.70;7.00;;;;;;;;;;2610404;54;20409;-73
2022/04/12 04:07:47;;;;;;;8.03;7.23;;;;;;;;;;2610588;46;20466;-73
2022/04/12 04:10:12;;;;;;;8.53;7.73;;;8.10;53.30;;;;;;2611278;54;20449;-73
2022/04/12 04:12:38;;;;;;;8.10;7.30;;;8.10;53.90;;;;;;2610522;54;20489;-73
2022/04/12 04:15:11;;;;;;;8.90;7.00;;;8.00;55.00;;;;;;2612912;54;20160;-72
2022/04/12 04:17:45;;;;;;;7.83;7.30;;;8.00;56.00;;;;;;2610659;54;20300;-72
2022/04/12 04:20:12;;;;;;;7.73;7.00;;;7.90;60.10;;;;;;2609816;47;20417;-72
2022/04/12 04:22:40;;;;;;;8.50;7.67;;;7.80;66.60;;;;;;2610639;39;20898;-72
2022/04/12 04:25:11;;;;;;;8.60;7.70;;;7.80;66.00;;;;;;2608932;47;20447;-72
2022/04/12 04:27:41;;;;;;;8.50;7.57;;;;;;;;;;2611915;54;20422;-73
2022/04/12 04:30:08;;;;;;;11.40;7.40;;;7.70;78.20;;;;;;2611738;39;20791;-74
2022/04/12 04:32:34;;;;;;;9.10;8.20;;;7.60;75.10;;;;;;2610239;54;20414;-71
2022/04/12 04:35:00;;;;;;;7.67;6.97;;;;;;;;;;2612505;54;20686;-72
2022/04/12 04:37:26;;;;;;;8.33;7.37;;;7.90;75.80;;;;;;2610100;54;20536;-72
2022/04/12 04:39:53;;;;;;;8.30;7.50;;;7.90;75.90;;;;;;2610339;54;20999;-72
2022/04/12 04:42:20;;;;;;;8.13;7.33;;;8.00;72.10;;;;;;2608823;54;20410;-73
2022/04/12 04:44:49;;;;;;;8.23;7.57;;;8.00;72.00;;;;;;2612956;54;20415;-73
2022/04/12 04:47:15;;;;;;;9.10;8.20;;;8.00;74.60;;;;;;2611639;54;21030;-72
2022/04/12 04:49:42;;;;;;;8.63;7.87;;;7.90;75.90;;;;;;2610023;54;20496;-73
2022/04/12 04:52:08;;;;;;;9.13;7.90;;;7.90;79.80;;;;;;2610775;54;20400;-74
2022/04/12 04:54:34;;;;;;;14.27;8.90;;;7.80;90.50;;;;;;2613879;54;21314;-73
2022/04/12 04:57:00;;;;;;;8.33;7.50;;;7.90;91.30;;;;;;2612110;54;20421;-72
2022/04/12 04:59:25;;;;;;;10.63;8.50;;;7.90;91.00;;;;;;2613046;54;20422;-73
2022/04/12 05:01:51;;;;;;;15.27;8.77;;;7.90;91.30;;;;;;2609548;54;20286;-72
2022/04/12 05:04:17;;;;;;;9.33;8.03;;;8.00;90.40;;;;;;2610266;54;20786;-73
2022/04/12 05:06:43;;;;;;;14.03;9.33;;;7.90;90.80;;;;;;2609417;54;20526;-73
2022/04/12 05:09:09;;;;;;;10.57;8.40;;;7.90;90.00;;;;;;2610708;54;20186;-73
2022/04/12 05:11:34;;;;;;;12.77;8.37;;;8.00;85.20;;;;;;2611411;39;20695;-73
2022/04/12 05:14:00;;;;;;;13.17;8.50;;;7.80;87.60;;;;;;2611868;54;20423;-73
2022/04/12 05:16:26;;;;;;;13.00;8.43;;;7.70;91.00;;;;;;2611209;54;20283;-73
2022/04/12 05:18:52;;;;;;;16.10;9.00;;;7.70;90.50;;;;;;2610941;39;20613;-75
2022/04/12 05:21:18;;;;;;;11.87;8.50;;;7.80;91.20;;;;;;2609516;54;20165;-76
2022/04/12 05:23:44;;;;;;;9.20;8.20;;;7.70;94.70;;;;;;2607440;54;20815;-72
2022/04/12 05:26:10;;;;;;;10.97;8.33;;;7.60;97.40;;;;;;2606808;54;21294;-73
2022/04/12 05:28:36;;;;;;;10.10;9.10;;;7.70;98.10;;;;;;2608943;47;20425;-75
2022/04/12 05:31:02;;;;;;;12.57;8.50;;;7.80;97.50;;;;;;2608607;54;20433;-72
2022/04/12 05:33:28;;;;;;;11.50;9.00;;;7.90;97.60;;;;;;2610194;39;20901;-73
2022/04/12 05:35:53;;;;;;;14.20;9.13;;;7.80;96.80;;;;;;2613728;47;20438;-73
2022/04/12 05:38:19;;;;;;;10.40;9.40;;;7.80;97.20;;;;;;2609603;54;20172;-72
2022/04/12 05:40:45;;;;;;;18.57;10.13;;;7.90;96.40;;;;;;2610953;54;20151;-71
2022/04/12 05:43:11;;;;;;;12.60;10.00;;;8.10;95.80;;;;;;2607583;39;21198;-72
2022/04/12 05:45:37;;;;;;;14.90;9.17;;;8.10;95.20;;;;;;2608000;54;20146;-73
2022/04/12 05:48:06;;;;;;;13.03;9.43;;;8.30;95.50;;;;;;2607935;54;20317;-73
2022/04/12 05:50:31;;;;;;;12.13;9.13;;;8.70;91.90;;;;;;2607930;47;20428;-73
2022/04/12 05:52:57;;;;;;;10.80;9.83;;;9.10;83.70;;;;;;2606602;54;20534;-72
2022/04/12 05:55:24;;;;;;;14.57;10.30;;;9.20;72.80;;;;;;2608137;54;20167;-74
2022/04/12 05:57:56;;;;;;;17.63;10.00;;;9.60;74.60;;;;;;2608929;54;21100;-71
2022/04/12 06:00:24;;;;;;;12.07;8.50;;;10.30;58.50;;;;;;2607353;54;20487;-72
2022/04/12 06:02:51;;;;;;;16.83;9.90;;;10.90;55.30;;;;;;2606774;54;20438;-72
2022/04/12 06:05:18;;;;;;;14.00;8.60;;;11.30;48.20;;;;;;2605498;54;20454;-73
2022/04/12 06:07:44;;;;;;;6.33;5.67;;;11.80;31.60;;;;;;2608332;54;20439;-73
2022/04/12 06:10:11;;;;;;;7.33;6.47;;;12.10;25.40;;;;;;2608378;54;20431;-72
2022/04/12 06:12:38;;;;;;;5.97;5.47;;;12.20;24.30;;;;;;2607984;54;20465;-72
2022/04/12 06:15:05;;;;;;;6.13;5.53;;;12.60;13.90;;;;;;2607059;54;20430;-72
2022/04/12 06:17:35;;;;;;;6.13;5.10;;;12.90;10.70;;;;;;2608615;54;20403;-72
2022/04/12 06:20:09;;;;;;;5.33;4.80;;;13.60;15.80;;;;;;2606777;39;20974;-72
2022/04/12 06:22:36;;;;;;;6.07;5.40;;;;;;;;;;2603303;54;20419;-73
2022/04/12 06:25:02;;;;;;;5.00;4.40;;;;;;;;;;2602384;39;21695;-72
2022/04/12 06:27:36;;;;;;;5.43;5.03;;;13.80;2.20;;;;;;2606251;39;20793;-72
2022/04/12 06:30:07;;;;;;;5.10;4.70;;;13.90;1.40;;;;;;2607404;54;20471;-72
2022/04/12 06:32:34;;;;;;;5.43;4.93;;;13.90;1.20;;;;;;2607128;46;20435;-71
2022/04/12 06:35:02;;;;;;;5.20;4.80;;;14.30;1.00;;;;;;2607837;39;20803;-72
2022/04/12 06:37:28;;;;;;;5.57;5.07;;;14.50;1.00;;;;;;2607937;54;20419;-72
2022/04/12 06:39:56;;;;;;;5.57;5.07;;;15.00;1.00;;;;;;2605989;54;20426;-73
2022/04/12 06:42:23;;;;;;;5.80;5.17;;;14.80;1.00;;;;;;2605839;54;20447;-72
2022/04/12 06:44:50;;;;;;;5.57;5.10;;;15.60;1.00;;;;;;2607687;54;20383;-73
2022/04/12 06:47:16;;;;;;;6.00;5.47;;;16.30;1.00;;;;;;2608736;47;20423;-72
2022/04/12 06:49:50;;;;;;;6.73;5.47;;;16.40;1.00;;;;;;2608681;54;20382;-73
2022/04/12 06:52:17;;;;;;;9.93;5.30;;;;;;;;;;2608158;54;20476;-72
2022/04/12 06:54:43;;;;;;;6.70;5.47;;;14.80;1.00;;;;;;2606859;54;20512;-73
2022/04/12 06:57:09;;;;;;;7.63;5.53;;;16.40;1.00;;;;;;2609080;54;20510;-74
2022/04/12 06:59:36;;;;;;;5.70;5.30;;;;;;;;;;2607648;54;20415;-71
2022/04/12 07:02:02;;;;;;;5.80;5.30;;;16.70;1.00;;;;;;2609404;54;20473;-72
2022/04/12 07:04:29;;;;;;;6.13;5.30;;;16.80;1.00;;;;;;2610395;39;21241;-72
2022/04/12 07:06:56;;;;;;;6.87;5.27;;;16.20;1.00;;;;;;2610908;54;20395;-73
2022/04/12 07:09:23;;;;;;;5.37;4.97;;;16.00;1.00;;;;;;2610908;54;20419;-73
2022/04/12 07:11:50;;;;;;;6.30;5.70;;;;;;;;;;2607768;54;20411;-73
2022/04/12 07:14:16;;;;;;;5.10;4.80;;;16.90;1.00;;;;;;2606215;54;21254;-72
2022/04/12 07:16:42;;;;;;;5.67;5.27;;;17.00;1.00;;;;;;2610187;54;20556;-72
2022/04/12 07:19:08;;;;;;;6.77;5.50;;;17.30;1.00;;;;;;2609980;54;20159;-72
2022/04/12 07:21:34;;;;;;;5.57;5.07;;;;;;;;;;2605463;54;20196;-72
2022/04/12 07:24:00;;;;;;;6.60;4.60;;;16.70;1.00;;;;;;2608442;54;21032;-72
2022/04/12 07:26:26;;;;;;;6.27;5.67;;;16.70;11.50;;;;;;2605492;39;21505;-72
2022/04/12 07:28:53;;;;;;;5.47;4.63;;;;;;;;;;2606467;54;21422;-71
2022/04/12 07:31:18;;;;;;;6.20;5.77;;;17.40;1.00;;;;;;2607139;39;20804;-73
2022/04/12 07:33:45;;;;;;;5.37;4.90;;;17.90;1.00;;;;;;2609151;54;20403;-72
2022/04/12 07:36:11;;;;;;;5.97;5.57;;;;;;;;;;2608043;54;20172;-73
2022/04/12 07:38:37;;;;;;;5.47;5.03;;;18.20;1.00;;;;;;2605690;54;20401;-72
2022/04/12 07:41:04;;;;;;;7.27;6.60;;;18.30;1.00;;;;;;2606195;54;20491;-73
2022/04/12 07:43:30;;;;;;;5.47;5.00;;;18.50;1.00;;;;;;2607914;54;20561;-72
2022/04/12 07:45:57;;;;;;;5.57;5.03;;;;;;;;;;2607359;54;20529;-73
2022/04/12 07:48:23;;;;;;;7.20;6.03;;;18.80;1.00;;;;;;2608752;54;20457;-72
2022/04/12 07:50:49;;;;;;;9.30;6.00;;;18.90;1.00;;;;;;2610165;54;20438;-73
2022/04/12 07:53:15;;;;;;;6.13;5.63;;;18.50;1.00;;;;;;2605418;39;20490;-73
2022/04/12 07:55:41;;;;;;;6.20;5.70;;;18.90;1.00;;;;;;2605962;46;20537;-72
2022/04/12 07:58:06;;;;;;;7.93;6.23;;;19.20;1.00;;;;;;2603243;54;20447;-73
2022/04/12 08:00:32;;;;;;;5.63;5.13;;;19.50;1.00;;;;;;2604984;54;20821;-73
2022/04/12 08:02:58;;;;;;;9.50;5.33;;;19.70;1.00;;;;;;2610456;47;20170;-73
2022/04/12 08:05:24;;;;;;;6.60;5.33;;;19.80;1.00;;;;;;2605237;47;20169;-74
2022/04/12 08:07:49;;;;;;;6.83;6.23;;;20.00;1.00;;;;;;2611922;54;20145;-72
2022/04/12 08:10:17;;;;;;;5.60;5.20;;;19.60;1.00;;;;;;2608472;39;20542;-71
2022/04/12 08:12:45;;;;;;;6.13;5.63;;;20.00;1.00;;;;;;2605270;46;20208;-72
2022/04/12 08:15:12;;;;;;;6.27;5.70;;;20.00;1.00;;;;;;2605279;47;20487;-72
2022/04/12 08:17:38;;;;;;;10.30;5.57;;;20.40;1.00;;;;;;2604846;54;20397;-73
2022/04/12 08:20:14;;;;;;;4.40;4.20;;;20.40;1.00;;;;;;2604929;46;20456;-73
2022/04/12 08:22:41;;;;;;;5.10;4.70;;;20.40;1.00;;;;;;2604996;54;20418;-73
2022/04/12 08:25:09;;;;;;;5.00;4.50;;;21.00;1.00;;;;;;2609118;39;22689;-73
2022/04/12 08:27:35;;;;;;;4.67;4.20;;;19.30;1.00;;;;;;2608997;47;20489;-73
2022/04/12 08:30:02;;;;;;;4.70;4.20;;;;;;;;;;2606143;39;21049;-73
2022/04/12 08:32:29;;;;;;;4.63;4.30;;;20.60;1.00;;;;;;2608525;54;22125;-72
2022/04/12 08:34:55;;;;;;;5.00;4.70;;;19.90;1.00;;;;;;2604812;54;20427;-72
2022/04/12 08:37:21;;;;;;;4.73;4.33;;;19.60;1.00;;;;;;2608824;54;20951;-73
2022/04/12 08:39:48;;;;;;;5.93;4.37;;;;;;;;;;2604648;54;20771;-73
2022/04/12 08:42:14;;;;;;;5.20;4.30;;;20.00;1.00;;;;;;2608881;54;20409;-73
2022/04/12 08:44:45;;;;;;;4.57;4.27;;;20.30;1.00;;;;;;2609330;54;20427;-73
2022/04/12 08:47:14;;;;;;;5.80;4.73;;;20.60;1.00;;;;;;2608012;54;20560;-73
2022/04/12 08:49:40;;;;;;;5.63;3.80;;;20.70;1.00;;;;;;2609743;54;20428;-73
2022/04/12 08:52:11;;;;;;;4.37;4.07;;;20.80;1.00;;;;;;2610185;54;20518;-75
2022/04/12 08:54:38;;;;;;;5.10;4.57;;;20.80;1.00;;;;;;2610866;54;20411;-72
2022/04/12 08:57:05;;;;;;;3.80;3.50;;;21.10;1.00;;;;;;2610786;54;20427;-73
2022/04/12 08:59:31;;;;;;;4.33;3.93;;;21.20;1.00;;;;;;2610682;54;20438;-72
2022/04/12 09:01:57;;;;;;;4.13;3.93;;;21.20;1.00;;;;;;2610838;54;21044;-73
2022/04/12 09:04:26;;;;;;;4.87;4.13;;;21.70;1.00;;;;;;2609877;54;20406;-72
2022/04/12 09:06:57;;;;;;;8.80;4.50;;;22.30;1.00;;;;;;2610272;54;20945;-73
2022/04/12 09:09:27;;;;;;;8.50;4.50;;;22.50;1.00;;;;;;2609656;54;20519;-73
2022/04/12 09:12:02;;;;;;;4.50;4.10;;;23.10;1.00;;;;;;2611483;54;20449;-72
2022/04/12 09:14:43;;;;;;;4.23;3.83;;;22.20;1.00;;;;;;2610325;39;20498;-72
2022/04/12 09:17:19;;;;;;;3.80;3.60;;;24.00;1.00;;;;;;2609411;54;20447;-74
2022/04/12 09:19:47;;;;;;;4.67;4.37;;;22.70;1.00;;;;;;2610251;54;20435;-72
2022/04/12 09:22:14;;;;;;;4.20;3.80;;;22.90;1.00;;;;;;2611355;54;20431;-73
2022/04/12 09:24:45;;;;;;;6.53;4.07;;;23.00;1.00;;;;;;2611347;54;20539;-73
2022/04/12 09:27:16;;;;;;;4.03;3.73;;;22.10;1.00;;;;;;2610753;54;20507;-72
2022/04/12 09:29:56;;;;;;;4.33;4.03;;;22.60;1.00;;;;;;2610244;54;20426;-73
2022/04/12 09:32:23;;;;;;;4.40;4.10;;;;;;;;;;2610511;54;20417;-73
2022/04/12 09:34:49;;;;;;;5.07;4.30;;;23.00;1.00;;;;;;2610140;39;21026;-73
2022/04/12 09:37:20;;;;;;;4.50;4.20;;;23.10;1.00;;;;;;2608656;54;20435;-73
2022/04/12 09:40:03;;;;;;;4.23;3.90;;;23.10;1.00;;;;;;2609766;54;20417;-73
2022/04/12 09:42:48;;;;;;;3.90;3.70;;;23.20;1.00;;;;;;2609613;39;21018;-72
2022/04/12 09:45:15;;;;;;;3.93;3.63;;;22.90;1.00;;;;;;2608381;54;20995;-72
2022/04/12 09:47:42;;;;;;;4.10;3.80;;;23.20;1.00;;;;;;2609267;54;20415;-73
2022/04/12 09:50:10;;;;;;;4.17;3.77;;;23.60;1.00;;;;;;2609018;31;20840;-72
2022/04/12 09:52:37;;;;;;;4.17;3.97;;;23.60;1.00;;;;;;2610786;39;20758;-72
2022/04/12 09:55:04;;;;;;;4.67;4.20;;;22.80;1.00;;;;;;2610459;54;20533;-74
2022/04/12 09:57:30;;;;;;;3.83;3.53;;;22.60;1.00;;;;;;2607486;47;20979;-72
2022/04/12 09:59:57;;;;;;;4.30;4.00;;;22.60;1.00;;;;;;2608762;54;20428;-74
2022/04/12 10:02:24;;;;;;;4.10;3.80;;;23.10;1.00;;;;;;2610000;54;20557;-74
2022/04/12 10:04:54;;;;;;;4.43;4.03;;;23.50;1.00;;;;;;2607966;54;20454;-72
2022/04/12 10:07:22;;;;;;;5.13;3.83;;;23.80;1.00;;;;;;2610469;39;20753;-72
2022/04/12 10:09:52;;;;;;;3.90;3.60;;;23.70;1.00;;;;;;2611091;31;20903;-72
2022/04/12 10:12:18;;;;;;;3.50;3.20;;;23.80;1.00;;;;;;2607091;54;20413;-74
2022/04/12 10:14:46;;;;;;;4.10;3.90;;;23.40;1.00;;;;;;2610401;39;20816;-73
2022/04/12 10:17:14;;;;;;;3.90;3.70;;;23.30;1.00;;;;;;2607691;54;20803;-73
2022/04/12 10:19:41;;;;;;;4.10;3.90;;;23.30;1.00;;;;;;2608462;54;20495;-72
2022/04/12 10:22:08;;;;;;;4.20;4.00;;;23.70;1.00;;;;;;2608639;51;20436;-72
2022/04/12 10:24:35;;;;;;;4.67;4.27;;;24.10;1.00;;;;;;2609352;39;20501;-72
2022/04/12 10:27:01;;;;;;;4.23;3.93;;;24.20;1.00;;;;;;2610003;39;20817;-73
2022/04/12 10:29:27;;;;;;;4.97;4.43;;;24.10;1.00;;;;;;2610197;39;20812;-73
2022/04/12 10:31:57;;;;;;;4.30;4.00;;;23.80;1.00;;;;;;2609493;54;20404;-73
2022/04/12 10:34:23;;;;;;;4.30;4.00;;;23.80;1.00;;;;;;2611065;54;20158;-72
2022/04/12 10:36:55;;;;;;;4.30;4.10;;;23.70;1.00;;;;;;2608099;54;20430;-73
2022/04/12 10:39:28;;;;;;;5.30;4.90;;;23.80;1.00;;;;;;2608496;39;20832;-72
2022/04/12 10:41:55;;;;;;;3.97;3.77;;;23.90;1.00;;;;;;2608550;54;20420;-72
2022/04/12 10:44:22;;;;;;;4.30;3.90;;;23.80;1.00;;;;;;2609694;54;20412;-73
2022/04/12 10:46:52;;;;;;;5.83;4.53;;;24.00;1.00;;;;;;2608999;54;20422;-75
2022/04/12 10:49:21;;;;;;;4.50;4.10;;;24.10;1.00;;;;;;2608062;54;20418;-72
2022/04/12 10:52:00;;;;;;;3.90;3.70;;;23.40;1.00;;;;;;2610132;51;20468;-72
2022/04/12 10:54:34;;;;;;;4.87;4.57;;;23.40;1.00;;;;;;2609624;54;20409;-73
2022/04/12 10:57:19;;;;;;;4.57;4.27;;;23.20;1.00;;;;;;2609020;54;20394;-72
2022/04/12 11:00:10;;;;;;;3.77;3.50;;;23.60;1.00;;;;;;2608838;54;20431;-72
2022/04/12 11:02:57;;;;;;;4.80;4.40;;;24.10;1.00;;;;;;2610064;54;21028;-73
2022/04/12 11:05:39;;;;;;;5.30;4.43;;;24.50;1.00;;;;;;2607244;54;20423;-73
2022/04/12 11:08:34;;;;;;;4.93;3.93;;;25.10;1.00;;;;;;2607754;51;20448;-73
2022/04/12 11:11:00;;;;;;;4.57;4.23;;;25.00;1.00;;;;;;2608671;54;20490;-73
2022/04/12 11:13:31;;;;;;;4.20;3.90;;;24.60;1.00;;;;;;2607926;54;20421;-73
2022/04/12 11:16:18;;;;;;;3.90;3.60;;;24.70;1.00;;;;;;2607816;47;20173;-73
2022/04/12 11:18:54;;;;;;;4.33;3.97;;;24.60;1.00;;;;;;2607653;39;20873;-74
2022/04/12 11:21:25;;;;;;;4.27;4.07;;;25.00;1.00;;;;;;2607288;54;20396;-72
2022/04/12 11:24:00;;;;;;;3.17;3.07;;;24.80;1.00;;;;;;2606950;54;20617;-74
2022/04/12 11:26:38;;;;;;;6.17;3.80;;;24.70;1.00;;;;;;2608479;54;20419;-72
2022/04/12 11:29:12;;;;;;;4.13;3.80;;;25.00;1.00;;;;;;2607157;54;20416;-72
2022/04/12 11:31:47;;;;;;;3.80;3.50;;;25.40;1.00;;;;;;2608348;51;20494;-74
2022/04/12 11:34:14;;;;;;;3.47;3.27;;;25.40;1.00;;;;;;2607997;54;20449;-72
2022/04/12 11:36:51;;;;;;;4.50;4.20;;;25.30;1.00;;;;;;2607299;54;20925;-73
2022/04/12 11:39:25;;;;;;;4.63;4.17;;;25.40;1.00;;;;;;2606218;54;20468;-73
2022/04/12 11:41:57;;;;;;;3.23;3.10;;;25.70;1.00;;;;;;2607877;54;20392;-73
2022/04/12 11:44:23;;;;;;;3.60;3.40;;;25.90;1.00;;;;;;2607599;54;20404;-73
2022/04/12 11:47:11;;;;;;;3.67;3.27;;;25.60;1.00;;;;;;2608681;39;21060;-73
2022/04/12 11:49:43;;;;;;;3.60;3.30;;;25.60;1.00;;;;;;2607823;54;20151;-73
2022/04/12 11:52:14;;;;;;;3.60;3.30;;;25.30;1.00;;;;;;2607541;47;20449;-73
2022/04/12 11:54:48;;;;;;;3.80;3.47;;;25.60;1.00;;;;;;2611025;47;20967;-72
2022/04/12 11:57:20;;;;;;;3.53;3.23;;;25.80;1.00;;;;;;2608832;54;20487;-72
2022/04/12 11:59:49;;;;;;;3.70;3.40;;;25.90;1.00;;;;;;2608758;54;20413;-72
2022/04/12 12:02:20;;;;;;;3.60;3.40;;;25.70;1.00;;;;;;2610336;54;20421;-72
2022/04/12 12:04:57;;;;;;;4.53;3.63;;;25.40;1.00;;;;;;2609071;39;20978;-73
2022/04/12 12:07:24;;;;;;;3.80;3.50;;;25.40;1.00;;;;;;2609774;54;20412;-72
2022/04/12 12:10:05;;;;;;;5.77;3.57;;;25.60;1.00;;;;;;2606559;54;20423;-72
2022/04/12 12:12:34;;;;;;;4.03;3.63;;;25.30;1.00;;;;;;2607674;46;20505;-73
2022/04/12 12:15:19;;;;;;;3.93;3.63;;;25.00;1.00;;;;;;2608501;54;20431;-72
2022/04/12 12:17:46;;;;;;;4.00;3.70;;;25.10;1.00;;;;;;2609493;54;20438;-72
2022/04/12 12:20:13;;;;;;;3.70;3.50;;;25.10;1.00;;;;;;2610990;39;20800;-73
2022/04/12 12:22:41;;;;;;;4.07;3.63;;;25.30;1.00;;;;;;2609314;54;20394;-72
2022/04/12 12:25:08;;;;;;;3.80;3.50;;;25.40;1.00;;;;;;2608890;54;20436;-72
2022/04/12 12:27:36;;;;;;;3.93;3.60;;;25.40;1.00;;;;;;2609731;54;20431;-72
2022/04/12 12:30:15;;;;;;;3.90;3.60;;;25.60;1.00;;;;;;2607868;54;20419;-73
2022/04/12 12:32:42;;;;;;;4.17;3.87;;;25.40;1.00;;;;;;2609680;54;20407;-73
2022/04/12 12:35:11;;;;;;;3.60;3.30;;;25.40;1.00;;;;;;2608374;54;20415;-73
2022/04/12 12:37:38;;;;;;;4.00;3.77;;;25.40;1.00;;;;;;2610212;54;20440;-74
2022/04/12 12:40:18;;;;;;;4.73;4.33;;;25.40;1.00;;;;;;2609032;54;20416;-73
2022/04/12 12:42:44;;;;;;;3.90;3.70;;;25.40;1.00;;;;;;2609640;54;20414;-74
2022/04/12 12:45:16;;;;;;;3.93;3.60;;;25.20;1.00;;;;;;2610680;54;20969;-73
2022/04/12 12:47:44;;;;;;;3.73;3.57;;;25.00;1.00;;;;;;2610455;54;22137;-73
2022/04/12 12:50:12;;;;;;;5.83;4.00;;;25.00;1.00;;;;;;2609398;54;20420;-73
2022/04/12 12:52:40;;;;;;;4.20;3.90;;;24.60;1.00;;;;;;2609553;54;20446;-73
2022/04/12 12:55:15;;;;;;;3.70;3.50;;;24.60;1.00;;;;;;2607835;54;20543;-73
2022/04/12 12:57:51;;;;;;;4.30;4.00;;;24.50;1.00;;;;;;2610580;54;20412;-73
2022/04/12 13:00:25;;;;;;;3.90;3.70;;;24.30;1.00;;;;;;2607209;54;20454;-73
2022/04/12 13:03:03;;;;;;;4.13;3.83;;;24.00;1.00;;;;;;2605887;47;20455;-73
2022/04/12 13:05:29;;;;;;;4.87;4.43;;;24.10;1.00;;;;;;2608520;54;20987;-72
2022/04/12 13:07:58;;;;;;;5.20;3.53;;;24.30;1.00;;;;;;2607924;54;20411;-73
2022/04/12 13:10:25;;;;;;;3.80;3.60;;;24.50;1.00;;;;;;2610169;39;21011;-73